This is the latest recevied weather packets stored in our database for station/object K5VP. If no packets are shown the sender has not sent any weather packets the latest 10 day(s).
| Time | Temp. | Humidity | Pressure | Rain* | Wind** | Luminosity | Snow |
|---|---|---|---|---|---|---|---|
| 1777427586 | 18.89° C | 94% | 1014.9 hPa | 0 mm | - | - | - |
| 1777427199 | 18.89° C | 94% | 1015.1 hPa | 0 mm | - | - | - |
| 1777426804 | 18.89° C | 94% | 1014.1 hPa | 0 mm | - | - | - |
| 1777426412 | 18.89° C | 94% | 1014.4 hPa | 0 mm | - | - | - |
| 1777426030 | 18.89° C | 94% | 1014.8 hPa | 0 mm | - | - | - |
| 1777425650 | 18.89° C | 94% | 1014.4 hPa | 0 mm | - | - | - |
| 1777425260 | 19.44° C | 94% | 1014.5 hPa | 0 mm | - | - | - |
| 1777424873 | 19.44° C | 94% | 1015.3 hPa | 0 mm | - | - | - |
| 1777424479 | 19.44° C | 94% | 1015.3 hPa | 0 mm | - | - | - |
| 1777424083 | 19.44° C | 93% | 1015.7 hPa | 1.27 mm | - | - | - |
| 1777423706 | 19.44° C | 93% | 1015.6 hPa | 1.52 mm | - | - | - |
| 1777235175 | 27.22° C | 46% | 1012.6 hPa | 0 mm | - | - | - |
| 1777234797 | 27.22° C | 45% | 1012.6 hPa | 0 mm | - | - | - |
| 1777234428 | 27.22° C | 47% | 1012.7 hPa | 0 mm | - | - | - |
| 1777234032 | 27.78° C | 46% | 1012.8 hPa | 0 mm | - | - | - |
| 1777233645 | 27.78° C | 45% | 1012.9 hPa | 0 mm | - | - | - |
| 1777233255 | 28.33° C | 45% | 1013.1 hPa | 0 mm | - | - | - |
| 1777232863 | 28.33° C | 45% | 1013.2 hPa | 0 mm | - | - | - |
| 1777232485 | 27.78° C | 49% | 1013.4 hPa | 0 mm | - | - | - |
| 1777232097 | 27.22° C | 48% | 1013.4 hPa | 0 mm | - | - | - |
| 1777231725 | 27.78° C | 47% | 1013.4 hPa | 0 mm | - | - | - |
| 1777231353 | 27.22° C | 47% | 1013.4 hPa | 0 mm | - | - | - |
| 1777230964 | 27.22° C | 46% | 1013.4 hPa | 0 mm | - | - | - |
| 1777230576 | 27.22° C | 45% | 1013.6 hPa | 0 mm | - | - | - |
| 1777230193 | 27.22° C | 45% | 1013.5 hPa | 0 mm | - | - | - |
* Rain latest hour (hover to see other rain measurements)
** Current wind speed in m/s (hover to see current wind gust speed)